Time;durP1;ratioP1;P1;durP2;ratioP2;P2;SDS_P1;SDS_P2;PMS_P1;PMS_P2;Temp;Humidity;BMP_temperature;BMP_pressure;BME280_temperature;BME280_humidity;BME280_pressure;Samples;Min_cycle;Max_cycle;Signal;HPM_P1;HPM_P2
2022/08/18 00:00:11;;;;;;;;;;;24.90;54.50;;;;;;5075279;28;19940;-74
2022/08/18 00:02:38;;;;;;;;;;;24.90;54.80;;;;;;5073243;28;19928;-74
2022/08/18 00:05:05;;;;;;;;;;;24.90;55.60;;;;;;5071598;28;20331;-74
2022/08/18 00:07:32;;;;;;;;;;;24.90;55.40;;;;;;5068415;28;19961;-74
2022/08/18 00:09:59;;;;;;;;;;;24.90;55.60;;;;;;5073681;28;19928;-75
2022/08/18 00:12:28;;;;;;;;;;;24.90;55.50;;;;;;5070468;28;19933;-74
2022/08/18 00:14:56;;;;;;;;;;;24.80;55.60;;;;;;5073950;28;20065;-75
2022/08/18 00:17:23;;;;;;;;;;;24.80;55.50;;;;;;5068472;28;19928;-74
2022/08/18 00:19:49;;;;;;;;;;;24.80;55.50;;;;;;5071471;28;20364;-73
2022/08/18 00:22:17;;;;;;;;;;;24.80;55.60;;;;;;5076955;28;19967;-74
2022/08/18 00:24:44;;;;;;;;;;;24.70;55.60;;;;;;5072979;28;19969;-74
2022/08/18 00:27:11;;;;;;;;;;;24.70;55.60;;;;;;5074751;28;19939;-74
2022/08/18 00:29:37;;;;;;;;;;;24.70;55.60;;;;;;5067337;28;19939;-74
2022/08/18 00:32:13;;;;;;;;;;;24.70;55.90;;;;;;5073916;28;20392;-74
2022/08/18 00:34:39;;;;;;;;;;;24.70;56.00;;;;;;5072639;28;20039;-74
2022/08/18 00:37:06;;;;;;;;;;;24.60;55.90;;;;;;5069062;28;19936;-74
2022/08/18 00:39:33;;;;;;;;;;;24.60;55.90;;;;;;5068834;28;19924;-74
2022/08/18 00:42:00;;;;;;;;;;;24.60;55.90;;;;;;5072337;28;19934;-74
2022/08/18 00:44:26;;;;;;;;;;;24.60;56.00;;;;;;5075881;28;19932;-74
2022/08/18 00:46:53;;;;;;;;;;;24.60;55.90;;;;;;5072585;28;20716;-73
2022/08/18 00:49:21;;;;;;;;;;;24.60;56.10;;;;;;5071953;28;19936;-74
2022/08/18 00:51:50;;;;;;;;;;;24.60;56.10;;;;;;5068047;28;19928;-74
2022/08/18 00:54:19;;;;;;;;;;;24.50;56.10;;;;;;5072568;28;19948;-74
2022/08/18 00:56:47;;;;;;;;;;;24.50;56.20;;;;;;5071718;28;19929;-74
2022/08/18 00:59:17;;;;;;;;;;;24.50;56.30;;;;;;5070828;28;19924;-74
2022/08/18 01:01:45;;;;;;;;;;;24.50;56.30;;;;;;5074337;28;19950;-74
2022/08/18 01:04:14;;;;;;;;;;;24.50;56.20;;;;;;5071709;28;19961;-73
2022/08/18 01:06:45;;;;;;;;;;;24.40;56.20;;;;;;5069842;28;19928;-74
2022/08/18 01:09:12;;;;;;;;;;;24.40;56.30;;;;;;5077867;28;19936;-74
2022/08/18 01:11:39;;;;;;;;;;;24.40;56.30;;;;;;5076821;28;19936;-73
2022/08/18 01:14:07;;;;;;;;;;;24.30;56.10;;;;;;5079354;28;19924;-74
2022/08/18 01:22:10;;;;;;;;;;;24.30;56.20;;;;;;5079776;28;19931;-74
2022/08/18 01:27:24;;;;;;;;;;;24.30;56.40;;;;;;5077423;28;19931;-74
2022/08/18 01:29:51;;;;;;;;;;;24.30;56.50;;;;;;5074589;28;20015;-74
2022/08/18 01:32:19;;;;;;;;;;;24.30;56.40;;;;;;5073852;28;19943;-74
2022/08/18 01:34:46;;;;;;;;;;;24.20;56.40;;;;;;5076095;28;19955;-74
2022/08/18 01:37:13;;;;;;;;;;;24.20;56.40;;;;;;5071022;28;19928;-74
2022/08/18 01:39:41;;;;;;;;;;;24.20;56.30;;;;;;5073266;28;19936;-74
2022/08/18 01:42:07;;;;;;;;;;;24.20;56.30;;;;;;5069897;28;19943;-74
2022/08/18 01:44:34;;;;;;;;;;;24.20;56.90;;;;;;5075901;28;19939;-75
2022/08/18 01:47:01;;;;;;;;;;;24.20;56.50;;;;;;5075371;28;21117;-73
2022/08/18 01:49:28;;;;;;;;;;;24.10;56.60;;;;;;5075006;28;19924;-74
2022/08/18 01:51:55;;;;;;;;;;;24.10;56.70;;;;;;5073370;28;20096;-74
2022/08/18 01:54:22;;;;;;;;;;;24.10;56.70;;;;;;5073880;28;20030;-75
2022/08/18 01:56:52;;;;;;;;;;;24.10;56.80;;;;;;5074869;28;19931;-73
2022/08/18 01:59:18;;;;;;;;;;;24.10;56.70;;;;;;5075611;28;19927;-74
2022/08/18 02:01:46;;;;;;;;;;;24.00;56.80;;;;;;5078751;28;19928;-74
2022/08/18 02:04:14;;;;;;;;;;;24.00;56.90;;;;;;5079622;28;19935;-74
2022/08/18 02:06:41;;;;;;;;;;;24.00;57.50;;;;;;5076860;28;19924;-74
2022/08/18 02:09:08;;;;;;;;;;;24.00;56.90;;;;;;5072179;28;20621;-74
2022/08/18 02:11:34;;;;;;;;;;;24.00;57.00;;;;;;5073768;28;19928;-74
2022/08/18 02:14:02;;;;;;;;;;;24.00;57.10;;;;;;5073860;28;19933;-74
2022/08/18 02:16:29;;;;;;;;;;;24.00;57.00;;;;;;5072711;28;19928;-73
2022/08/18 02:18:55;;;;;;;;;;;23.90;57.10;;;;;;5071102;28;19928;-73
2022/08/18 02:21:22;;;;;;;;;;;23.90;57.10;;;;;;5074686;28;19931;-73
2022/08/18 02:23:49;;;;;;;;;;;23.90;57.10;;;;;;5072006;28;19928;-74
2022/08/18 02:26:17;;;;;;;;;;;23.80;57.00;;;;;;5071744;28;19991;-74
2022/08/18 02:28:43;;;;;;;;;;;23.80;57.10;;;;;;5076536;28;19928;-74
2022/08/18 02:31:13;;;;;;;;;;;23.80;57.20;;;;;;5068851;28;19932;-73
2022/08/18 02:33:39;;;;;;;;;;;23.80;57.10;;;;;;5077175;28;19928;-73
2022/08/18 02:36:06;;;;;;;;;;;23.80;57.20;;;;;;5074931;28;20410;-74
2022/08/18 02:38:33;;;;;;;;;;;23.80;57.20;;;;;;5078666;28;19971;-73
2022/08/18 02:41:02;;;;;;;;;;;23.80;57.30;;;;;;5072990;28;20429;-74
2022/08/18 02:43:29;;;;;;;;;;;23.80;57.40;;;;;;5069564;28;19928;-72
2022/08/18 02:45:57;;;;;;;;;;;23.80;57.50;;;;;;5074190;28;19931;-73
2022/08/18 02:48:25;;;;;;;;;;;23.80;57.50;;;;;;5075951;28;19928;-73
2022/08/18 02:50:59;;;;;;;;;;;23.70;57.40;;;;;;5075951;28;19928;-74
2022/08/18 02:53:27;;;;;;;;;;;23.70;57.50;;;;;;5070851;28;19935;-74
2022/08/18 02:55:54;;;;;;;;;;;23.70;57.50;;;;;;5068396;28;19980;-74
2022/08/18 02:58:20;;;;;;;;;;;23.70;57.60;;;;;;5065823;28;20444;-74
2022/08/18 03:00:47;;;;;;;;;;;23.70;57.60;;;;;;5072610;28;19928;-74
2022/08/18 03:03:14;;;;;;;;;;;23.70;57.80;;;;;;5069282;28;19935;-74
2022/08/18 03:05:42;;;;;;;;;;;23.60;57.70;;;;;;5070347;28;19951;-73
2022/08/18 03:08:09;;;;;;;;;;;23.60;57.70;;;;;;5066299;28;19936;-74
2022/08/18 03:10:35;;;;;;;;;;;23.60;57.70;;;;;;5067454;28;20035;-73
2022/08/18 03:13:02;;;;;;;;;;;23.60;57.80;;;;;;5070985;28;19935;-74
2022/08/18 03:15:29;;;;;;;;;;;23.50;57.70;;;;;;5073420;28;20303;-73
2022/08/18 03:17:56;;;;;;;;;;;23.60;57.80;;;;;;5070770;28;19935;-74
2022/08/18 03:20:23;;;;;;;;;;;23.50;57.90;;;;;;5076737;28;19934;-74
2022/08/18 03:22:51;;;;;;;;;;;23.50;57.90;;;;;;5070237;28;19928;-72
2022/08/18 03:25:17;;;;;;;;;;;23.50;57.90;;;;;;5070995;28;19940;-74
2022/08/18 03:27:44;;;;;;;;;;;23.50;57.90;;;;;;5069755;28;19932;-73
2022/08/18 03:30:11;;;;;;;;;;;23.50;58.10;;;;;;5072798;28;19932;-74
2022/08/18 03:32:37;;;;;;;;;;;23.50;58.20;;;;;;5074379;28;19932;-74
2022/08/18 03:35:04;;;;;;;;;;;23.50;58.30;;;;;;5072221;28;19936;-74
2022/08/18 03:37:32;;;;;;;;;;;23.50;58.40;;;;;;5068708;28;19928;-73
2022/08/18 03:40:00;;;;;;;;;;;23.40;58.50;;;;;;5071541;28;19936;-72
2022/08/18 03:42:26;;;;;;;;;;;23.40;58.60;;;;;;5075678;28;19935;-73
2022/08/18 03:44:53;;;;;;;;;;;23.40;58.60;;;;;;5073568;28;19938;-73
2022/08/18 03:47:19;;;;;;;;;;;23.40;58.70;;;;;;5071305;28;19935;-73
2022/08/18 03:49:47;;;;;;;;;;;23.40;58.90;;;;;;5073471;28;19934;-71
2022/08/18 03:52:14;;;;;;;;;;;23.40;58.90;;;;;;5072080;28;19931;-73
2022/08/18 03:54:40;;;;;;;;;;;23.40;58.90;;;;;;5071218;28;19935;-73
2022/08/18 03:57:09;;;;;;;;;;;23.30;58.80;;;;;;5072835;28;20408;-74
2022/08/18 03:59:36;;;;;;;;;;;23.30;58.90;;;;;;5071097;28;19928;-74
2022/08/18 04:02:03;;;;;;;;;;;23.30;59.00;;;;;;5068136;28;20024;-74
2022/08/18 04:04:30;;;;;;;;;;;23.30;59.10;;;;;;5074129;28;19931;-74
2022/08/18 04:06:57;;;;;;;;;;;23.30;59.20;;;;;;5067032;28;19929;-74
2022/08/18 04:09:26;;;;;;;;;;;23.20;59.30;;;;;;5070012;28;19932;-73
2022/08/18 04:11:52;;;;;;;;;;;23.30;59.30;;;;;;5073072;28;19965;-74
2022/08/18 04:14:23;;;;;;;;;;;23.20;59.30;;;;;;5070166;28;19932;-74
2022/08/18 04:16:50;;;;;;;;;;;23.20;59.30;;;;;;5066392;28;20456;-74
2022/08/18 04:19:17;;;;;;;;;;;23.20;59.40;;;;;;5072722;28;20465;-74
2022/08/18 04:21:43;;;;;;;;;;;23.20;59.50;;;;;;5070077;28;20402;-73
2022/08/18 04:24:11;;;;;;;;;;;23.20;59.50;;;;;;5067439;28;20551;-74
2022/08/18 04:26:39;;;;;;;;;;;23.20;59.50;;;;;;5075084;28;20685;-73
2022/08/18 04:29:06;;;;;;;;;;;23.10;59.60;;;;;;5070011;28;19928;-74
2022/08/18 04:31:34;;;;;;;;;;;23.10;59.70;;;;;;5069554;28;19936;-74
2022/08/18 04:34:02;;;;;;;;;;;23.10;59.70;;;;;;5069583;28;19928;-73
2022/08/18 04:36:29;;;;;;;;;;;23.10;59.80;;;;;;5074386;28;20005;-74
2022/08/18 04:38:57;;;;;;;;;;;23.10;59.80;;;;;;5073187;28;19928;-73
2022/08/18 04:41:26;;;;;;;;;;;23.10;59.90;;;;;;5073619;28;19932;-74
2022/08/18 04:43:52;;;;;;;;;;;23.00;59.90;;;;;;5077106;28;20027;-73
2022/08/18 04:46:19;;;;;;;;;;;23.10;60.10;;;;;;5074493;28;20300;-74
2022/08/18 04:48:47;;;;;;;;;;;23.10;60.20;;;;;;5079691;28;20176;-73
2022/08/18 04:51:14;;;;;;;;;;;23.00;60.20;;;;;;5076850;28;19935;-73
2022/08/18 04:53:44;;;;;;;;;;;23.00;60.20;;;;;;5075147;28;19932;-74
2022/08/18 04:56:13;;;;;;;;;;;23.00;60.20;;;;;;5077331;28;19936;-74
2022/08/18 04:58:40;;;;;;;;;;;23.00;61.10;;;;;;5078900;28;19939;-74
2022/08/18 05:01:08;;;;;;;;;;;23.00;60.40;;;;;;5077173;28;19970;-74
2022/08/18 05:03:35;;;;;;;;;;;23.00;61.20;;;;;;5074436;28;19924;-74
2022/08/18 05:06:03;;;;;;;;;;;22.90;60.40;;;;;;5074841;28;20017;-73
2022/08/18 05:08:30;;;;;;;;;;;22.90;60.60;;;;;;5074020;28;19929;-72
2022/08/18 05:10:58;;;;;;;;;;;22.90;60.70;;;;;;5077909;28;19939;-74
2022/08/18 05:13:25;;;;;;;;;;;22.90;60.70;;;;;;5075562;28;20287;-74
2022/08/18 05:15:55;;;;;;;;;;;22.90;60.80;;;;;;5073671;28;19932;-74
2022/08/18 05:18:23;;;;;;;;;;;22.90;60.70;;;;;;5075968;28;19928;-74
2022/08/18 05:20:50;;;;;;;;;;;22.90;61.00;;;;;;5077663;28;19928;-74
2022/08/18 05:23:18;;;;;;;;;;;22.90;61.00;;;;;;5079280;28;20464;-74
2022/08/18 05:25:45;;;;;;;;;;;22.90;61.20;;;;;;5074376;28;19935;-73
2022/08/18 05:28:12;;;;;;;;;;;22.80;61.20;;;;;;5078603;28;19932;-75
2022/08/18 05:30:39;;;;;;;;;;;22.80;61.30;;;;;;5075280;28;19932;-73
2022/08/18 05:33:05;;;;;;;;;;;22.80;61.40;;;;;;5082032;28;19963;-74
2022/08/18 05:35:41;;;;;;;;;;;22.80;61.30;;;;;;5082558;28;19932;-73
2022/08/18 05:38:15;;;;;;;;;;;22.80;61.50;;;;;;5070680;28;19955;-73
2022/08/18 05:40:44;;;;;;;;;;;22.80;61.60;;;;;;5078437;28;20465;-73
2022/08/18 05:43:14;;;;;;;;;;;22.80;61.70;;;;;;5072770;28;20378;-73
2022/08/18 05:45:41;;;;;;;;;;;22.80;61.70;;;;;;5072157;28;20426;-74
2022/08/18 05:48:07;;;;;;;;;;;22.70;61.60;;;;;;5075196;28;20253;-73
2022/08/18 05:50:35;;;;;;;;;;;22.70;61.60;;;;;;5079363;28;20364;-74
2022/08/18 05:53:05;;;;;;;;;;;22.70;61.70;;;;;;5082376;28;19979;-73
2022/08/18 05:58:22;;;;;;;;;;;22.70;62.00;;;;;;5072710;28;19969;-73
2022/08/18 06:00:52;;;;;;;;;;;22.70;62.00;;;;;;5074858;28;20027;-74
2022/08/18 06:03:21;;;;;;;;;;;22.70;62.10;;;;;;5075262;28;20387;-73
2022/08/18 06:05:52;;;;;;;;;;;22.70;62.20;;;;;;5079188;28;20312;-74
2022/08/18 06:08:21;;;;;;;;;;;22.70;62.20;;;;;;5071700;28;19981;-72
2022/08/18 06:10:48;;;;;;;;;;;22.70;62.40;;;;;;5074599;28;19928;-73
2022/08/18 06:13:18;;;;;;;;;;;22.70;62.50;;;;;;5073477;28;19928;-72
2022/08/18 06:15:51;;;;;;;;;;;22.60;62.50;;;;;;5078636;28;19928;-73
2022/08/18 06:18:30;;;;;;;;;;;22.60;62.60;;;;;;5086137;28;19928;-73
2022/08/18 06:21:15;;;;;;;;;;;22.60;62.50;;;;;;5085646;28;19943;-74
2022/08/18 06:23:45;;;;;;;;;;;22.60;62.70;;;;;;5073836;28;19987;-74
2022/08/18 06:26:15;;;;;;;;;;;22.60;62.90;;;;;;5073384;28;19928;-73
2022/08/18 06:28:48;;;;;;;;;;;22.60;62.80;;;;;;5077723;28;20811;-74
2022/08/18 06:31:18;;;;;;;;;;;22.60;62.80;;;;;;5075697;28;19939;-73
2022/08/18 06:33:50;;;;;;;;;;;22.60;62.90;;;;;;5084020;28;19932;-72
2022/08/18 06:36:21;;;;;;;;;;;22.60;62.90;;;;;;5076723;28;20023;-73
2022/08/18 06:38:52;;;;;;;;;;;22.60;62.80;;;;;;5075191;28;20316;-74
2022/08/18 06:41:20;;;;;;;;;;;22.60;63.20;;;;;;5073233;28;19935;-74
2022/08/18 06:43:58;;;;;;;;;;;22.60;63.30;;;;;;5074298;28;20549;-73
2022/08/18 06:46:33;;;;;;;;;;;22.50;63.30;;;;;;5070742;28;20015;-74
2022/08/18 06:49:02;;;;;;;;;;;22.50;63.50;;;;;;5075379;28;19932;-73
2022/08/18 06:51:29;;;;;;;;;;;22.50;63.50;;;;;;5073077;28;19963;-73
2022/08/18 06:53:57;;;;;;;;;;;22.50;63.40;;;;;;5066949;28;20312;-74
2022/08/18 06:56:27;;;;;;;;;;;22.50;63.50;;;;;;5074884;28;19935;-74
2022/08/18 06:58:54;;;;;;;;;;;22.50;63.50;;;;;;5066289;28;19931;-73
2022/08/18 07:01:22;;;;;;;;;;;22.50;63.50;;;;;;5071163;28;20061;-74
2022/08/18 07:03:53;;;;;;;;;;;22.50;63.50;;;;;;5068249;28;19939;-74
2022/08/18 07:06:30;;;;;;;;;;;22.50;63.60;;;;;;5075999;28;19931;-74
2022/08/18 07:09:12;;;;;;;;;;;22.50;63.70;;;;;;5075376;28;19928;-74
2022/08/18 07:11:42;;;;;;;;;;;22.50;63.70;;;;;;5072988;28;19932;-74
2022/08/18 07:14:13;;;;;;;;;;;22.50;63.60;;;;;;5077186;28;19959;-74
2022/08/18 07:16:40;;;;;;;;;;;22.50;63.70;;;;;;5073788;28;20323;-74
2022/08/18 07:19:08;;;;;;;;;;;22.50;63.80;;;;;;5072683;28;19935;-74
2022/08/18 07:21:36;;;;;;;;;;;22.50;63.70;;;;;;5073544;28;20465;-74
2022/08/18 07:24:05;;;;;;;;;;;22.50;63.80;;;;;;5072083;28;19928;-74
2022/08/18 07:26:53;;;;;;;;;;;22.50;64.00;;;;;;5071460;28;19943;-73
2022/08/18 07:29:21;;;;;;;;;;;22.50;64.20;;;;;;5075255;28;19932;-75
2022/08/18 07:31:49;;;;;;;;;;;22.50;64.20;;;;;;5076259;28;19929;-74
2022/08/18 07:34:19;;;;;;;;;;;22.50;64.10;;;;;;5074249;28;19928;-74
2022/08/18 07:36:49;;;;;;;;;;;22.50;64.20;;;;;;5071229;28;19924;-74
2022/08/18 07:39:20;;;;;;;;;;;22.50;64.40;;;;;;5072634;28;19935;-73
2022/08/18 07:41:49;;;;;;;;;;;22.50;64.30;;;;;;5067300;28;19928;-74
2022/08/18 07:44:20;;;;;;;;;;;22.50;64.40;;;;;;5072142;28;19935;-73
2022/08/18 07:46:51;;;;;;;;;;;22.60;64.50;;;;;;5070828;28;19927;-74
2022/08/18 07:49:34;;;;;;;;;;;22.60;64.40;;;;;;5072082;28;19932;-75
2022/08/18 07:52:03;;;;;;;;;;;22.60;64.70;;;;;;5057172;28;19939;-74
2022/08/18 07:54:35;;;;;;;;;;;22.50;64.70;;;;;;5074367;28;19932;-75
2022/08/18 07:57:06;;;;;;;;;;;22.60;64.70;;;;;;5063700;28;19928;-74
2022/08/18 07:59:35;;;;;;;;;;;22.50;64.70;;;;;;5072410;28;19928;-74
2022/08/18 08:02:14;;;;;;;;;;;22.60;65.00;;;;;;5080534;28;20014;-74
2022/08/18 08:04:45;;;;;;;;;;;22.60;65.10;;;;;;5075517;28;19928;-75
2022/08/18 08:07:14;;;;;;;;;;;22.60;65.30;;;;;;5077519;28;19932;-74
2022/08/18 08:09:45;;;;;;;;;;;22.60;65.60;;;;;;5077918;28;19947;-75
2022/08/18 08:12:16;;;;;;;;;;;22.50;65.50;;;;;;5075487;28;19928;-75
2022/08/18 08:14:44;;;;;;;;;;;22.50;65.90;;;;;;5074134;28;19927;-75
2022/08/18 08:17:22;;;;;;;;;;;22.50;65.90;;;;;;5068909;28;19940;-75
2022/08/18 08:20:07;;;;;;;;;;;22.50;65.90;;;;;;5073688;28;19936;-75
2022/08/18 08:22:37;;;;;;;;;;;22.50;66.10;;;;;;5071207;28;19928;-75
2022/08/18 08:25:08;;;;;;;;;;;22.50;66.10;;;;;;5072303;28;19928;-75
2022/08/18 08:27:44;;;;;;;;;;;22.50;66.20;;;;;;5074046;28;19928;-75
2022/08/18 08:30:13;;;;;;;;;;;22.50;66.50;;;;;;5072627;28;19933;-76
2022/08/18 08:32:45;;;;;;;;;;;22.40;69.60;;;;;;5073795;28;19928;-75
2022/08/18 08:35:13;;;;;;;;;;;22.30;70.70;;;;;;5072030;28;19932;-74
2022/08/18 08:37:43;;;;;;;;;;;22.20;71.60;;;;;;5065855;28;19935;-74
2022/08/18 08:40:13;;;;;;;;;;;22.10;72.30;;;;;;5071812;28;19927;-75
2022/08/18 08:42:43;;;;;;;;;;;22.00;72.50;;;;;;5072815;28;20549;-73
2022/08/18 08:45:10;;;;;;;;;;;21.90;73.30;;;;;;5073254;28;19928;-73
2022/08/18 08:47:41;;;;;;;;;;;21.70;74.00;;;;;;5078142;28;19924;-74
2022/08/18 08:50:12;;;;;;;;;;;21.70;73.80;;;;;;5072882;28;19935;-74
2022/08/18 08:52:41;;;;;;;;;;;21.80;74.20;;;;;;5072238;28;20043;-74
2022/08/18 08:55:11;;;;;;;;;;;21.80;73.60;;;;;;5071762;28;19936;-75
2022/08/18 08:57:41;;;;;;;;;;;21.90;73.50;;;;;;5069152;28;19932;-75
2022/08/18 09:00:09;;;;;;;;;;;22.00;72.80;;;;;;5073433;28;20455;-75
2022/08/18 09:02:54;;;;;;;;;;;22.10;72.50;;;;;;5073416;28;19925;-75
2022/08/18 09:05:23;;;;;;;;;;;22.20;72.30;;;;;;5067803;28;19931;-74
2022/08/18 09:08:08;;;;;;;;;;;22.20;72.30;;;;;;5068984;28;19951;-74
2022/08/18 09:11:03;;;;;;;;;;;22.10;72.50;;;;;;5069897;28;20425;-73
2022/08/18 09:13:41;;;;;;;;;;;22.00;72.80;;;;;;5074306;28;19953;-76
2022/08/18 09:16:14;;;;;;;;;;;22.10;73.00;;;;;;5075959;28;19932;-75
2022/08/18 09:18:45;;;;;;;;;;;22.10;73.00;;;;;;5071414;28;19928;-75
2022/08/18 09:21:29;;;;;;;;;;;22.00;72.80;;;;;;5076840;28;19935;-75
2022/08/18 09:24:03;;;;;;;;;;;22.00;72.70;;;;;;5074279;28;19976;-74
2022/08/18 09:26:39;;;;;;;;;;;22.00;72.50;;;;;;5073816;28;19932;-75
2022/08/18 09:29:13;;;;;;;;;;;22.10;72.20;;;;;;5077722;28;20026;-74
2022/08/18 09:31:42;;;;;;;;;;;22.10;71.90;;;;;;5072852;28;19935;-75
2022/08/18 09:34:21;;;;;;;;;;;22.20;71.80;;;;;;5072031;28;20364;-74
2022/08/18 09:36:57;;;;;;;;;;;22.20;71.40;;;;;;5070021;28;19935;-74
2022/08/18 09:42:14;;;;;;;;;;;22.20;71.30;;;;;;5073129;28;19968;-75
2022/08/18 09:45:00;;;;;;;;;;;22.30;71.00;;;;;;5080240;28;19983;-75
2022/08/18 09:47:45;;;;;;;;;;;22.30;70.90;;;;;;5078995;28;19934;-75
2022/08/18 09:50:32;;;;;;;;;;;22.40;70.80;;;;;;5076806;28;21350;-75
2022/08/18 09:53:18;;;;;;;;;;;22.40;70.70;;;;;;5077324;28;19928;-74
2022/08/18 09:55:53;;;;;;;;;;;22.40;70.40;;;;;;5073363;28;20003;-75
2022/08/18 09:58:40;;;;;;;;;;;22.50;70.20;;;;;;5076796;28;20408;-75
2022/08/18 10:01:26;;;;;;;;;;;22.50;70.10;;;;;;5073500;28;20456;-75
2022/08/18 10:04:11;;;;;;;;;;;22.60;70.00;;;;;;5077291;28;19924;-75
2022/08/18 10:06:38;;;;;;;;;;;22.50;69.80;;;;;;5076086;28;19936;-74
2022/08/18 10:09:35;;;;;;;;;;;22.60;69.60;;;;;;5071149;28;20343;-75
2022/08/18 10:12:14;;;;;;;;;;;22.70;69.60;;;;;;5073198;28;19934;-75
2022/08/18 10:14:54;;;;;;;;;;;22.70;69.40;;;;;;5073220;28;19936;-75
2022/08/18 10:17:28;;;;;;;;;;;22.70;69.40;;;;;;5074230;28;19935;-75
2022/08/18 10:19:59;;;;;;;;;;;22.70;69.20;;;;;;5076647;28;19931;-75
2022/08/18 10:22:41;;;;;;;;;;;22.80;69.20;;;;;;5072907;28;19935;-74
2022/08/18 10:25:10;;;;;;;;;;;22.80;69.20;;;;;;5073351;28;19935;-75
2022/08/18 10:27:48;;;;;;;;;;;22.80;69.90;;;;;;5076498;28;19928;-75
2022/08/18 10:30:33;;;;;;;;;;;22.90;68.90;;;;;;5076163;28;19935;-75
2022/08/18 10:33:00;;;;;;;;;;;22.90;68.70;;;;;;5075642;28;20388;-75
2022/08/18 10:35:51;;;;;;;;;;;22.90;68.40;;;;;;5073812;28;19939;-75
2022/08/18 10:38:35;;;;;;;;;;;23.00;68.20;;;;;;5066504;28;19928;-75
2022/08/18 10:41:03;;;;;;;;;;;23.00;68.10;;;;;;5057333;28;19928;-74
2022/08/18 10:43:35;;;;;;;;;;;23.00;67.90;;;;;;5073887;28;19932;-75
2022/08/18 10:46:01;;;;;;;;;;;23.10;67.90;;;;;;5076173;28;19928;-74
2022/08/18 10:48:29;;;;;;;;;;;23.10;67.80;;;;;;5076459;28;19932;-75
2022/08/18 10:50:58;;;;;;;;;;;23.10;67.80;;;;;;5080293;28;19928;-75
2022/08/18 10:53:31;;;;;;;;;;;23.20;67.70;;;;;;5074746;28;19928;-75
2022/08/18 10:56:00;;;;;;;;;;;23.20;67.60;;;;;;5079041;28;19928;-75
2022/08/18 10:58:44;;;;;;;;;;;23.30;67.30;;;;;;5078746;28;21320;-75
2022/08/18 11:01:25;;;;;;;;;;;23.30;67.10;;;;;;5079751;28;19927;-75
2022/08/18 11:04:10;;;;;;;;;;;23.30;66.90;;;;;;5073015;28;19962;-75
2022/08/18 11:06:37;;;;;;;;;;;23.40;66.70;;;;;;5078732;28;20042;-75
2022/08/18 11:09:04;;;;;;;;;;;23.40;66.50;;;;;;5077164;28;19935;-75
2022/08/18 11:11:33;;;;;;;;;;;23.40;66.30;;;;;;5087178;28;19939;-77
2022/08/18 11:14:04;;;;;;;;;;;23.50;66.20;;;;;;5072358;28;20289;-74
2022/08/18 11:16:40;;;;;;;;;;;23.50;66.10;;;;;;5069915;28;19939;-75
2022/08/18 11:19:09;;;;;;;;;;;23.50;65.90;;;;;;5072412;28;19936;-74
2022/08/18 11:21:39;;;;;;;;;;;23.60;65.80;;;;;;5073690;28;19928;-74
2022/08/18 11:24:07;;;;;;;;;;;23.60;65.70;;;;;;5074076;28;19927;-74
2022/08/18 11:26:36;;;;;;;;;;;23.70;65.60;;;;;;5076309;28;19943;-75
2022/08/18 11:29:17;;;;;;;;;;;23.70;65.50;;;;;;5077257;28;20388;-74
2022/08/18 11:31:45;;;;;;;;;;;23.80;65.50;;;;;;5074103;28;19932;-74
2022/08/18 11:34:12;;;;;;;;;;;23.80;65.70;;;;;;5074800;28;20019;-74
2022/08/18 11:36:39;;;;;;;;;;;23.80;65.30;;;;;;5075173;28;20567;-73
2022/08/18 11:39:08;;;;;;;;;;;23.90;66.00;;;;;;5075247;28;20317;-74
2022/08/18 11:41:36;;;;;;;;;;;23.90;66.00;;;;;;5075500;28;19933;-74
2022/08/18 11:44:04;;;;;;;;;;;23.90;65.80;;;;;;5078870;28;20505;-75
2022/08/18 11:46:37;;;;;;;;;;;24.00;65.80;;;;;;5074262;28;20415;-74
2022/08/18 11:49:13;;;;;;;;;;;24.10;66.50;;;;;;5071714;28;19932;-74
2022/08/18 11:51:52;;;;;;;;;;;24.20;65.30;;;;;;5075890;28;19932;-76
2022/08/18 11:54:20;;;;;;;;;;;24.30;65.10;;;;;;5070138;28;19929;-74
2022/08/18 11:56:47;;;;;;;;;;;24.30;65.10;;;;;;5071382;28;20459;-75
2022/08/18 11:59:30;;;;;;;;;;;24.30;65.30;;;;;;5071593;28;20074;-74
2022/08/18 12:01:59;;;;;;;;;;;24.30;65.00;;;;;;5078148;28;19928;-76
2022/08/18 12:04:32;;;;;;;;;;;24.30;64.80;;;;;;5070237;28;19954;-76
2022/08/18 12:07:00;;;;;;;;;;;24.30;65.00;;;;;;5064392;28;20061;-76
2022/08/18 12:09:31;;;;;;;;;;;24.40;64.60;;;;;;5068405;28;19939;-76
2022/08/18 12:12:00;;;;;;;;;;;24.40;64.30;;;;;;5070218;28;19936;-75
2022/08/18 12:14:27;;;;;;;;;;;24.50;64.20;;;;;;5072159;28;20059;-76
2022/08/18 12:16:54;;;;;;;;;;;24.50;63.90;;;;;;5069797;28;19940;-76
2022/08/18 12:19:23;;;;;;;;;;;24.50;64.00;;;;;;5066442;28;20411;-76
2022/08/18 12:21:51;;;;;;;;;;;24.50;63.70;;;;;;5072944;28;19940;-74
2022/08/18 12:24:19;;;;;;;;;;;24.60;63.70;;;;;;5071545;28;19936;-76
2022/08/18 12:26:46;;;;;;;;;;;24.70;63.60;;;;;;5072699;28;19967;-76
2022/08/18 12:29:12;;;;;;;;;;;24.70;63.20;;;;;;5076548;28;20355;-76
2022/08/18 12:31:39;;;;;;;;;;;24.80;62.70;;;;;;5073637;28;19932;-76
2022/08/18 12:34:05;;;;;;;;;;;24.90;62.30;;;;;;5073520;28;19935;-75
2022/08/18 12:36:34;;;;;;;;;;;24.90;62.20;;;;;;5074216;28;20306;-76
2022/08/18 12:39:01;;;;;;;;;;;25.00;62.30;;;;;;5072997;28;19939;-76
2022/08/18 12:41:27;;;;;;;;;;;25.10;62.20;;;;;;5075214;28;19932;-75
2022/08/18 12:43:54;;;;;;;;;;;25.20;61.60;;;;;;5069867;28;20864;-76
2022/08/18 12:46:21;;;;;;;;;;;25.30;61.50;;;;;;5076797;28;20186;-75
2022/08/18 12:48:48;;;;;;;;;;;25.30;61.40;;;;;;5077010;28;19936;-76
2022/08/18 12:51:15;;;;;;;;;;;25.30;61.30;;;;;;5072021;28;19940;-76
2022/08/18 12:53:42;;;;;;;;;;;25.40;61.00;;;;;;5066005;28;20689;-76
2022/08/18 12:56:15;;;;;;;;;;;25.40;61.10;;;;;;5069573;28;20682;-76
2022/08/18 12:58:42;;;;;;;;;;;25.50;60.80;;;;;;5071481;28;19928;-76
2022/08/18 13:01:09;;;;;;;;;;;25.60;60.80;;;;;;5070911;28;20011;-76
2022/08/18 13:03:35;;;;;;;;;;;25.60;60.80;;;;;;5068041;28;19932;-76
2022/08/18 13:06:02;;;;;;;;;;;25.60;60.40;;;;;;5074456;28;19935;-74
2022/08/18 13:08:29;;;;;;;;;;;25.70;60.30;;;;;;5073697;28;19932;-76
2022/08/18 13:10:57;;;;;;;;;;;25.80;60.30;;;;;;5070803;28;19935;-76
2022/08/18 13:13:23;;;;;;;;;;;25.80;60.00;;;;;;5076993;28;19935;-76
2022/08/18 13:15:50;;;;;;;;;;;25.80;59.90;;;;;;5078770;28;19928;-76
2022/08/18 13:18:16;;;;;;;;;;;25.90;59.70;;;;;;5076931;28;19931;-76
2022/08/18 13:20:43;;;;;;;;;;;26.00;59.70;;;;;;5081399;28;19928;-76
2022/08/18 13:23:09;;;;;;;;;;;26.00;60.00;;;;;;5076475;28;19935;-76
2022/08/18 13:25:37;;;;;;;;;;;26.10;59.50;;;;;;5071990;28;19935;-76
2022/08/18 13:28:05;;;;;;;;;;;26.10;59.60;;;;;;5079573;28;19971;-74
2022/08/18 13:30:31;;;;;;;;;;;26.20;59.40;;;;;;5078892;28;20021;-75
2022/08/18 13:32:58;;;;;;;;;;;26.20;59.30;;;;;;5078077;28;19928;-75
2022/08/18 13:35:25;;;;;;;;;;;26.20;58.80;;;;;;5077140;28;19932;-76
2022/08/18 13:37:53;;;;;;;;;;;26.30;59.10;;;;;;5077153;28;19935;-77
2022/08/18 13:40:21;;;;;;;;;;;26.30;59.00;;;;;;5072665;28;19932;-75
2022/08/18 13:42:48;;;;;;;;;;;26.30;58.90;;;;;;5077346;28;19939;-76
2022/08/18 13:45:18;;;;;;;;;;;26.40;59.10;;;;;;5073836;28;19932;-74
2022/08/18 13:47:46;;;;;;;;;;;26.50;58.80;;;;;;5070862;28;19987;-76
2022/08/18 13:50:12;;;;;;;;;;;26.50;58.70;;;;;;5074526;28;19928;-76
2022/08/18 13:52:40;;;;;;;;;;;26.50;58.90;;;;;;5071737;28;19928;-75
2022/08/18 13:55:09;;;;;;;;;;;26.60;58.30;;;;;;5075333;28;19931;-76
2022/08/18 13:57:35;;;;;;;;;;;26.60;59.00;;;;;;5078701;28;19932;-76
2022/08/18 14:00:02;;;;;;;;;;;26.60;58.30;;;;;;5078818;28;20421;-74
2022/08/18 14:02:30;;;;;;;;;;;26.70;58.40;;;;;;5074023;28;19931;-75
2022/08/18 14:04:57;;;;;;;;;;;26.70;58.30;;;;;;5075413;28;19927;-74
2022/08/18 14:07:23;;;;;;;;;;;26.80;57.80;;;;;;5074288;28;19956;-76
2022/08/18 14:09:50;;;;;;;;;;;26.80;57.80;;;;;;5075923;28;19940;-76
2022/08/18 14:12:18;;;;;;;;;;;26.90;57.60;;;;;;5072892;28;19935;-75
2022/08/18 14:14:45;;;;;;;;;;;26.90;57.50;;;;;;5076486;28;19928;-76
2022/08/18 14:17:11;;;;;;;;;;;26.90;57.50;;;;;;5078118;28;19928;-76
2022/08/18 14:27:52;;;;;;;;;;;27.10;56.90;;;;;;5080873;28;20593;-77
2022/08/18 14:30:18;;;;;;;;;;;27.20;56.80;;;;;;5076283;28;19935;-76
2022/08/18 14:32:47;;;;;;;;;;;27.20;56.60;;;;;;5087250;28;19938;-76
2022/08/18 14:35:18;;;;;;;;;;;27.20;57.00;;;;;;5094319;28;19974;-75
2022/08/18 14:37:45;;;;;;;;;;;27.30;56.80;;;;;;5081358;28;20400;-75
2022/08/18 14:40:12;;;;;;;;;;;27.30;56.50;;;;;;5060023;28;19932;-75
2022/08/18 14:42:40;;;;;;;;;;;27.30;56.60;;;;;;5080074;28;20736;-75
2022/08/18 14:45:07;;;;;;;;;;;27.30;56.50;;;;;;5076022;28;20037;-75
2022/08/18 14:47:34;;;;;;;;;;;27.40;56.20;;;;;;5079062;28;19931;-76
2022/08/18 14:50:02;;;;;;;;;;;27.40;56.40;;;;;;5076394;28;19932;-76
2022/08/18 14:52:30;;;;;;;;;;;27.40;56.00;;;;;;5080387;28;19944;-75